Wolfcreek, West Virginia
Current Conditions -  °F | °C
As of 12:55 PM on Friday 24 Oct 2014 (Local Time) from KLWB Reporting Station
Clear Clear  
Wind Chill: 57°   Ceiling: Unl
Heat Index: 57°   Visibility: 10mi
Dew Point: 42°   Wind: 5mph
Humidity: 57%   Direction: 210°SSW
Pressure: 30.07"   Gusts: NA
Location:  37.67°N, 80.62°W
Report Text: KLWB 241655Z AUTO 21004KT 10SM CLR 14/06 A3007 RMK AO2 T01380055
Loading
Personal Weather Stations






























Interactive Weather Map
Tropical Storm Tracking
New forecast layout! Learn more

10-Day Weather Forecast

Advertisements
Track Severe Weather on mobile